Regional Weather

 

KMKL - Jackson, TN, USA
Distance from station: WNW 50mi, 81km
Updated: Tue, May-28-2024 1:53am CDT
Clear
Clear
 Wind from SSW
Wind: SSW 7 mph , 11 km/h
Temperature: 66°F , 19°C
Dew Point: 63°F , 17°C
Humidity: 88%
Barometer: 30.02 inHg , 1016.6 hPa
Clouds: Clear
Visibility: 10 miles , 16 km
2024/05/28 06:53 KMKL 280653Z AUTO 20006KT 10SM CLR 19/17 A3002 RMK AO2 SLP159 T01890172
KMEM - Memphis, TN, USA
Distance from station: W 108mi, 173km
Updated: Tue, May-28-2024 1:54am CDT
Clear
Clear
 Wind from calm
Wind: Calm
Temperature: 72°F , 22°C
Dew Point: 64°F , 18°C
Humidity: 78%
Barometer: 30.02 inHg , 1016.6 hPa
Clouds: Clear
Visibility: 10 miles , 16 km
2024/05/28 06:54 KMEM 280654Z 00000KT 10SM CLR 22/18 A3002 RMK AO2 SLP161 T02170178
 
KBNA - Nashville, TN, USA
Distance from station: NE 97mi, 157km
Updated: Tue, May-28-2024 1:53am CDT
Few Clouds
Few Clouds
 Wind from calm
Wind: Calm
Temperature: 66°F , 19°C
Dew Point: 61°F , 16°C
Humidity: 83%
Barometer: 30.00 inHg , 1015.9 hPa
Clouds: Few Clouds
Visibility: 10 miles , 16 km
Cloud details: Few Clouds 11000 ft
2024/05/28 06:53 KBNA 280653Z 00000KT 10SM FEW110 19/16 A3000 RMK AO2 SLP153 T01890161
KCKV - Clarksville, TN, USA
Distance from station: NNE 99mi, 159km
Updated: Tue, May-28-2024 1:52am CDT
Overcast
Overcast
 Wind from W
Wind: W 3 mph , 6 km/h
Temperature: 64°F , 18°C
Dew Point: 61°F , 16°C
Humidity: 88%
Barometer: 29.99 inHg , 1015.6 hPa
Clouds: Overcast
Visibility: 10 miles , 16 km
Cloud details: Mostly cloudy 7000 ft
Overcast 9000 ft
2024/05/28 06:52 KCKV 280652Z AUTO 26003KT 10SM BKN070 OVC090 18/16 A2999 RMK AO2 SLP151 T01830161
 
KPAH - Paducah, KY, USA
Distance from station: NNW 128mi, 205km
Updated: Tue, May-28-2024 1:53am CDT
Mostly cloudy
Mostly cloudy
 Wind from calm
Wind: Calm
Temperature: 64°F , 18°C
Dew Point: 61°F , 16°C
Humidity: 88%
Barometer: 29.99 inHg , 1015.6 hPa
Clouds: Mostly cloudy
Visibility: 10 miles , 16 km
Cloud details: Mostly cloudy 8500 ft
2024/05/28 06:53 KPAH 280653Z AUTO 00000KT 10SM BKN085 18/16 A2999 RMK AO2 SLP152 T01780161
KCHA - Chattanooga, TN, USA
Distance from station: E 165mi, 265km
Updated: Tue, May-28-2024 1:53am CDT
Clear
Clear
 Wind from calm
Wind: Calm
Temperature: 70°F , 21°C
Dew Point: 64°F , 18°C
Humidity: 83%
Barometer: 29.98 inHg , 1015.2 hPa
Clouds: Clear
Visibility: 10 miles , 16 km
2024/05/28 06:53 KCHA 280653Z AUTO 00000KT 10SM CLR 21/18 A2998 RMK AO2 SLP144 T02060183 $
 
KTYS - Knoxville, TN, USA
Distance from station: E 234mi, 377km
Updated: Tue, May-28-2024 1:53am CDT
Few Clouds
Few Clouds
 Wind from calm
Wind: Calm
Temperature: 66°F , 19°C
Dew Point: 64°F , 18°C
Humidity: 94%
Barometer: 29.96 inHg , 1014.6 hPa
Clouds: Few Clouds
Visibility: 10 miles , 16 km
Cloud details: Few Clouds 4600 ft
2024/05/28 06:53 KTYS 280653Z 00000KT 10SM FEW046 19/18 A2996 RMK AO2 SLP136 T01940178
KLIT - Little Rock, AR, USA
Distance from station: W 240mi, 386km
Updated: Tue, May-28-2024 1:53am CDT
Clear
Clear
 Wind from WNW
Wind: WNW 3 mph , 6 km/h
Temperature: 72°F , 22°C
Dew Point: 64°F , 18°C
Humidity: 78%
Barometer: 30.04 inHg , 1017.3 hPa
Clouds: Clear
Visibility: 9 miles , 14 km
2024/05/28 06:53 KLIT 280653Z 29003KT 9SM CLR 22/18 A3004 RMK AO2 SLP172 T02170183

Refresh Page for latest data.